sensor_id;sensor_type;location;lat;lon;timestamp;P1;durP1;ratioP1;P2;durP2;ratioP2
1204;SDS011;592;48.764;9.174;2023-06-01T00:00:00;8.53;;;4.77;;
1204;SDS011;592;48.764;9.174;2023-06-01T00:02:27;9.63;;;5.23;;
1204;SDS011;592;48.764;9.174;2023-06-01T00:04:54;8.87;;;5.30;;
1204;SDS011;592;48.764;9.174;2023-06-01T00:07:20;10.73;;;4.77;;
1204;SDS011;592;48.764;9.174;2023-06-01T00:09:48;9.20;;;5.50;;
1204;SDS011;592;48.764;9.174;2023-06-01T00:12:15;9.13;;;5.03;;
1204;SDS011;592;48.764;9.174;2023-06-01T00:14:43;7.03;;;4.97;;
1204;SDS011;592;48.764;9.174;2023-06-01T00:17:10;6.97;;;4.70;;
1204;SDS011;592;48.764;9.174;2023-06-01T00:19:37;6.67;;;4.80;;
1204;SDS011;592;48.764;9.174;2023-06-01T00:22:04;8.20;;;4.70;;
1204;SDS011;592;48.764;9.174;2023-06-01T00:24:32;8.13;;;5.07;;
1204;SDS011;592;48.764;9.174;2023-06-01T00:26:58;11.53;;;5.10;;
1204;SDS011;592;48.764;9.174;2023-06-01T00:29:26;8.97;;;4.90;;
1204;SDS011;592;48.764;9.174;2023-06-01T00:31:54;8.73;;;5.50;;
1204;SDS011;592;48.764;9.174;2023-06-01T00:34:21;8.13;;;4.67;;
1204;SDS011;592;48.764;9.174;2023-06-01T00:36:47;7.73;;;4.73;;
1204;SDS011;592;48.764;9.174;2023-06-01T00:39:14;7.37;;;4.90;;
1204;SDS011;592;48.764;9.174;2023-06-01T00:41:41;8.57;;;5.10;;
1204;SDS011;592;48.764;9.174;2023-06-01T00:44:07;8.13;;;4.60;;
1204;SDS011;592;48.764;9.174;2023-06-01T00:46:34;9.40;;;5.63;;
1204;SDS011;592;48.764;9.174;2023-06-01T00:49:04;6.80;;;4.70;;
1204;SDS011;592;48.764;9.174;2023-06-01T00:51:32;10.83;;;5.33;;
1204;SDS011;592;48.764;9.174;2023-06-01T00:54:00;8.47;;;5.40;;
1204;SDS011;592;48.764;9.174;2023-06-01T00:56:27;7.33;;;4.70;;
1204;SDS011;592;48.764;9.174;2023-06-01T00:58:54;7.77;;;4.80;;
1204;SDS011;592;48.764;9.174;2023-06-01T01:01:21;8.70;;;4.90;;
1204;SDS011;592;48.764;9.174;2023-06-01T01:03:49;7.30;;;4.50;;
1204;SDS011;592;48.764;9.174;2023-06-01T01:06:27;9.10;;;5.00;;
1204;SDS011;592;48.764;9.174;2023-06-01T01:09:08;13.40;;;5.17;;
1204;SDS011;592;48.764;9.174;2023-06-01T01:11:43;6.40;;;4.67;;
1204;SDS011;592;48.764;9.174;2023-06-01T01:14:19;6.20;;;4.30;;
1204;SDS011;592;48.764;9.174;2023-06-01T01:16:49;6.60;;;4.80;;
1204;SDS011;592;48.764;9.174;2023-06-01T01:19:27;9.70;;;4.93;;
1204;SDS011;592;48.764;9.174;2023-06-01T01:22:06;7.13;;;4.67;;
1204;SDS011;592;48.764;9.174;2023-06-01T01:24:43;11.90;;;4.80;;
1204;SDS011;592;48.764;9.174;2023-06-01T01:27:14;7.07;;;4.70;;
1204;SDS011;592;48.764;9.174;2023-06-01T01:29:51;8.53;;;4.73;;
1204;SDS011;592;48.764;9.174;2023-06-01T01:32:19;7.90;;;4.90;;
1204;SDS011;592;48.764;9.174;2023-06-01T01:34:47;10.83;;;5.27;;
1204;SDS011;592;48.764;9.174;2023-06-01T01:37:15;9.00;;;5.60;;
1204;SDS011;592;48.764;9.174;2023-06-01T01:39:42;10.63;;;5.00;;
1204;SDS011;592;48.764;9.174;2023-06-01T01:42:09;8.23;;;4.97;;
1204;SDS011;592;48.764;9.174;2023-06-01T01:44:35;6.60;;;4.90;;
1204;SDS011;592;48.764;9.174;2023-06-01T01:47:05;5.67;;;4.47;;
1204;SDS011;592;48.764;9.174;2023-06-01T01:49:40;7.57;;;4.30;;
1204;SDS011;592;48.764;9.174;2023-06-01T01:52:10;14.00;;;5.00;;
1204;SDS011;592;48.764;9.174;2023-06-01T01:54:42;9.20;;;4.67;;
1204;SDS011;592;48.764;9.174;2023-06-01T01:57:11;7.63;;;4.90;;
1204;SDS011;592;48.764;9.174;2023-06-01T01:59:40;7.33;;;4.90;;
1204;SDS011;592;48.764;9.174;2023-06-01T02:02:09;9.53;;;5.07;;
1204;SDS011;592;48.764;9.174;2023-06-01T02:04:37;8.73;;;4.83;;
1204;SDS011;592;48.764;9.174;2023-06-01T02:07:05;9.37;;;5.50;;
1204;SDS011;592;48.764;9.174;2023-06-01T02:09:32;9.53;;;5.57;;
1204;SDS011;592;48.764;9.174;2023-06-01T02:11:59;8.63;;;4.90;;
1204;SDS011;592;48.764;9.174;2023-06-01T02:14:27;10.17;;;5.63;;
1204;SDS011;592;48.764;9.174;2023-06-01T02:16:53;7.97;;;4.73;;
1204;SDS011;592;48.764;9.174;2023-06-01T02:19:22;8.43;;;4.80;;
1204;SDS011;592;48.764;9.174;2023-06-01T02:21:48;8.87;;;5.30;;
1204;SDS011;592;48.764;9.174;2023-06-01T02:24:15;6.77;;;4.73;;
1204;SDS011;592;48.764;9.174;2023-06-01T02:26:42;10.10;;;4.40;;
1204;SDS011;592;48.764;9.174;2023-06-01T02:29:09;6.83;;;4.70;;
1204;SDS011;592;48.764;9.174;2023-06-01T02:31:36;9.57;;;5.47;;
1204;SDS011;592;48.764;9.174;2023-06-01T02:34:02;7.00;;;4.83;;
1204;SDS011;592;48.764;9.174;2023-06-01T02:36:31;10.90;;;5.60;;
1204;SDS011;592;48.764;9.174;2023-06-01T02:38:58;7.70;;;4.87;;
1204;SDS011;592;48.764;9.174;2023-06-01T02:41:25;16.50;;;5.20;;
1204;SDS011;592;48.764;9.174;2023-06-01T02:43:51;7.47;;;4.57;;
1204;SDS011;592;48.764;9.174;2023-06-01T02:46:18;7.70;;;5.40;;
1204;SDS011;592;48.764;9.174;2023-06-01T02:48:45;7.93;;;5.23;;
1204;SDS011;592;48.764;9.174;2023-06-01T02:51:12;10.77;;;4.73;;
1204;SDS011;592;48.764;9.174;2023-06-01T02:53:40;11.17;;;5.30;;
1204;SDS011;592;48.764;9.174;2023-06-01T02:56:07;8.37;;;5.13;;
1204;SDS011;592;48.764;9.174;2023-06-01T02:58:34;12.03;;;5.13;;
1204;SDS011;592;48.764;9.174;2023-06-01T03:01:01;11.00;;;5.07;;
1204;SDS011;592;48.764;9.174;2023-06-01T03:03:28;11.90;;;5.10;;
1204;SDS011;592;48.764;9.174;2023-06-01T03:05:54;10.17;;;5.37;;
1204;SDS011;592;48.764;9.174;2023-06-01T03:08:22;6.70;;;4.60;;
1204;SDS011;592;48.764;9.174;2023-06-01T03:10:51;9.20;;;5.10;;
1204;SDS011;592;48.764;9.174;2023-06-01T03:13:17;9.80;;;5.20;;
1204;SDS011;592;48.764;9.174;2023-06-01T03:15:44;7.57;;;4.90;;
1204;SDS011;592;48.764;9.174;2023-06-01T03:18:11;7.83;;;4.47;;
1204;SDS011;592;48.764;9.174;2023-06-01T03:20:38;8.70;;;5.23;;
1204;SDS011;592;48.764;9.174;2023-06-01T03:23:05;6.07;;;4.63;;
1204;SDS011;592;48.764;9.174;2023-06-01T03:25:31;8.47;;;4.73;;
1204;SDS011;592;48.764;9.174;2023-06-01T03:28:00;8.97;;;5.40;;
1204;SDS011;592;48.764;9.174;2023-06-01T03:30:26;6.90;;;4.73;;
1204;SDS011;592;48.764;9.174;2023-06-01T03:32:53;6.93;;;4.37;;
1204;SDS011;592;48.764;9.174;2023-06-01T03:35:20;6.70;;;4.03;;
1204;SDS011;592;48.764;9.174;2023-06-01T03:37:47;8.13;;;5.03;;
1204;SDS011;592;48.764;9.174;2023-06-01T03:40:13;8.33;;;4.70;;
1204;SDS011;592;48.764;9.174;2023-06-01T03:42:41;8.67;;;4.60;;
1204;SDS011;592;48.764;9.174;2023-06-01T03:45:10;7.10;;;4.87;;
1204;SDS011;592;48.764;9.174;2023-06-01T03:47:38;8.30;;;4.77;;
1204;SDS011;592;48.764;9.174;2023-06-01T03:50:06;9.30;;;4.97;;
1204;SDS011;592;48.764;9.174;2023-06-01T03:52:34;12.80;;;5.40;;
1204;SDS011;592;48.764;9.174;2023-06-01T03:55:02;9.57;;;5.10;;
1204;SDS011;592;48.764;9.174;2023-06-01T03:57:33;8.30;;;4.93;;
1204;SDS011;592;48.764;9.174;2023-06-01T04:00:00;10.40;;;5.30;;
1204;SDS011;592;48.764;9.174;2023-06-01T04:02:29;7.83;;;5.33;;
1204;SDS011;592;48.764;9.174;2023-06-01T04:04:56;7.37;;;4.83;;
1204;SDS011;592;48.764;9.174;2023-06-01T04:07:22;8.03;;;5.77;;
1204;SDS011;592;48.764;9.174;2023-06-01T04:09:50;10.73;;;5.20;;
1204;SDS011;592;48.764;9.174;2023-06-01T04:12:17;9.73;;;5.00;;
1204;SDS011;592;48.764;9.174;2023-06-01T04:14:44;7.30;;;4.90;;
1204;SDS011;592;48.764;9.174;2023-06-01T04:17:10;7.97;;;5.30;;
1204;SDS011;592;48.764;9.174;2023-06-01T04:19:39;6.67;;;4.90;;
1204;SDS011;592;48.764;9.174;2023-06-01T04:22:05;7.80;;;4.40;;
1204;SDS011;592;48.764;9.174;2023-06-01T04:24:32;6.80;;;4.57;;
1204;SDS011;592;48.764;9.174;2023-06-01T04:26:59;8.03;;;4.77;;
1204;SDS011;592;48.764;9.174;2023-06-01T04:29:27;8.10;;;4.77;;
1204;SDS011;592;48.764;9.174;2023-06-01T04:31:54;7.20;;;4.80;;
1204;SDS011;592;48.764;9.174;2023-06-01T04:34:20;9.40;;;5.30;;
1204;SDS011;592;48.764;9.174;2023-06-01T04:36:49;7.93;;;5.47;;
1204;SDS011;592;48.764;9.174;2023-06-01T04:39:16;8.37;;;4.90;;
1204;SDS011;592;48.764;9.174;2023-06-01T04:41:43;8.07;;;5.13;;
1204;SDS011;592;48.764;9.174;2023-06-01T04:44:10;8.33;;;4.93;;
1204;SDS011;592;48.764;9.174;2023-06-01T04:46:38;7.33;;;4.80;;
1204;SDS011;592;48.764;9.174;2023-06-01T04:49:06;7.57;;;4.60;;
1204;SDS011;592;48.764;9.174;2023-06-01T04:51:32;7.93;;;5.60;;
1204;SDS011;592;48.764;9.174;2023-06-01T04:54:02;8.90;;;5.30;;
1204;SDS011;592;48.764;9.174;2023-06-01T04:56:29;8.87;;;4.43;;
1204;SDS011;592;48.764;9.174;2023-06-01T04:58:56;9.60;;;4.80;;
1204;SDS011;592;48.764;9.174;2023-06-01T05:01:24;5.90;;;4.27;;
1204;SDS011;592;48.764;9.174;2023-06-01T05:03:54;9.97;;;4.90;;
1204;SDS011;592;48.764;9.174;2023-06-01T05:06:22;9.13;;;4.73;;
1204;SDS011;592;48.764;9.174;2023-06-01T05:08:49;9.53;;;5.20;;
1204;SDS011;592;48.764;9.174;2023-06-01T05:11:17;9.30;;;5.40;;
1204;SDS011;592;48.764;9.174;2023-06-01T05:13:44;8.83;;;5.00;;
1204;SDS011;592;48.764;9.174;2023-06-01T05:16:11;6.27;;;4.17;;
1204;SDS011;592;48.764;9.174;2023-06-01T05:18:37;12.13;;;5.03;;
1204;SDS011;592;48.764;9.174;2023-06-01T05:21:05;8.50;;;4.30;;
1204;SDS011;592;48.764;9.174;2023-06-01T05:23:32;7.23;;;4.90;;
1204;SDS011;592;48.764;9.174;2023-06-01T05:25:58;8.83;;;5.33;;
1204;SDS011;592;48.764;9.174;2023-06-01T05:28:28;8.70;;;5.23;;
1204;SDS011;592;48.764;9.174;2023-06-01T05:30:55;9.40;;;5.60;;
1204;SDS011;592;48.764;9.174;2023-06-01T05:33:22;8.70;;;4.97;;
1204;SDS011;592;48.764;9.174;2023-06-01T05:35:49;9.97;;;5.20;;
1204;SDS011;592;48.764;9.174;2023-06-01T05:38:15;9.47;;;5.47;;
1204;SDS011;592;48.764;9.174;2023-06-01T05:40:42;8.23;;;5.57;;
1204;SDS011;592;48.764;9.174;2023-06-01T05:43:09;12.23;;;5.30;;
1204;SDS011;592;48.764;9.174;2023-06-01T05:45:37;7.80;;;5.10;;
1204;SDS011;592;48.764;9.174;2023-06-01T05:48:04;8.90;;;4.70;;
1204;SDS011;592;48.764;9.174;2023-06-01T05:50:30;11.10;;;5.63;;
1204;SDS011;592;48.764;9.174;2023-06-01T05:52:57;12.13;;;5.17;;
1204;SDS011;592;48.764;9.174;2023-06-01T05:55:24;11.73;;;5.43;;
1204;SDS011;592;48.764;9.174;2023-06-01T05:57:51;8.53;;;5.23;;
1204;SDS011;592;48.764;9.174;2023-06-01T06:00:17;7.53;;;5.50;;
1204;SDS011;592;48.764;9.174;2023-06-01T06:02:46;13.37;;;5.10;;
1204;SDS011;592;48.764;9.174;2023-06-01T06:05:12;9.43;;;5.17;;
1204;SDS011;592;48.764;9.174;2023-06-01T06:07:40;11.57;;;6.00;;
1204;SDS011;592;48.764;9.174;2023-06-01T06:10:06;11.40;;;5.20;;
1204;SDS011;592;48.764;9.174;2023-06-01T06:12:34;13.07;;;6.17;;
1204;SDS011;592;48.764;9.174;2023-06-01T06:15:01;13.13;;;6.37;;
1204;SDS011;592;48.764;9.174;2023-06-01T06:17:29;12.47;;;6.10;;
1204;SDS011;592;48.764;9.174;2023-06-01T06:19:57;14.53;;;6.00;;
1204;SDS011;592;48.764;9.174;2023-06-01T06:22:23;12.47;;;5.80;;
1204;SDS011;592;48.764;9.174;2023-06-01T06:24:50;14.40;;;5.90;;
1204;SDS011;592;48.764;9.174;2023-06-01T06:27:17;10.60;;;5.67;;
1204;SDS011;592;48.764;9.174;2023-06-01T06:29:43;11.47;;;5.40;;
1204;SDS011;592;48.764;9.174;2023-06-01T06:32:10;9.43;;;5.23;;
1204;SDS011;592;48.764;9.174;2023-06-01T06:34:37;11.67;;;5.90;;
1204;SDS011;592;48.764;9.174;2023-06-01T06:37:05;6.87;;;4.50;;
1204;SDS011;592;48.764;9.174;2023-06-01T06:39:32;14.17;;;5.63;;
1204;SDS011;592;48.764;9.174;2023-06-01T06:41:59;8.90;;;4.97;;
1204;SDS011;592;48.764;9.174;2023-06-01T06:44:27;12.40;;;5.60;;
1204;SDS011;592;48.764;9.174;2023-06-01T06:46:54;12.60;;;5.40;;
1204;SDS011;592;48.764;9.174;2023-06-01T06:49:21;13.50;;;5.70;;
1204;SDS011;592;48.764;9.174;2023-06-01T06:51:47;13.27;;;6.03;;
1204;SDS011;592;48.764;9.174;2023-06-01T06:54:15;10.43;;;6.13;;
1204;SDS011;592;48.764;9.174;2023-06-01T06:56:42;12.73;;;5.50;;
1204;SDS011;592;48.764;9.174;2023-06-01T06:59:09;14.13;;;5.70;;
1204;SDS011;592;48.764;9.174;2023-06-01T07:01:36;9.00;;;5.07;;
1204;SDS011;592;48.764;9.174;2023-06-01T07:04:06;10.80;;;5.40;;
1204;SDS011;592;48.764;9.174;2023-06-01T07:06:33;10.53;;;5.80;;
1204;SDS011;592;48.764;9.174;2023-06-01T07:09:00;9.17;;;5.30;;
1204;SDS011;592;48.764;9.174;2023-06-01T07:11:29;13.37;;;6.53;;
1204;SDS011;592;48.764;9.174;2023-06-01T07:13:56;11.83;;;5.20;;
1204;SDS011;592;48.764;9.174;2023-06-01T07:16:22;14.93;;;5.53;;
1204;SDS011;592;48.764;9.174;2023-06-01T07:18:50;11.97;;;5.97;;
1204;SDS011;592;48.764;9.174;2023-06-01T07:21:17;14.53;;;6.10;;
1204;SDS011;592;48.764;9.174;2023-06-01T07:23:44;10.27;;;6.00;;
1204;SDS011;592;48.764;9.174;2023-06-01T07:26:11;9.83;;;5.57;;
1204;SDS011;592;48.764;9.174;2023-06-01T07:28:39;10.13;;;6.00;;
1204;SDS011;592;48.764;9.174;2023-06-01T07:31:06;10.20;;;5.60;;
1204;SDS011;592;48.764;9.174;2023-06-01T07:33:33;16.37;;;5.87;;
1204;SDS011;592;48.764;9.174;2023-06-01T07:36:00;10.30;;;6.20;;
1204;SDS011;592;48.764;9.174;2023-06-01T07:38:28;10.13;;;5.77;;
1204;SDS011;592;48.764;9.174;2023-06-01T07:40:56;9.30;;;5.70;;
1204;SDS011;592;48.764;9.174;2023-06-01T07:43:22;9.97;;;5.70;;
1204;SDS011;592;48.764;9.174;2023-06-01T07:45:50;10.40;;;5.70;;
1204;SDS011;592;48.764;9.174;2023-06-01T07:48:17;10.13;;;6.40;;
1204;SDS011;592;48.764;9.174;2023-06-01T07:50:44;10.50;;;6.63;;
1204;SDS011;592;48.764;9.174;2023-06-01T07:53:11;9.37;;;5.70;;
1204;SDS011;592;48.764;9.174;2023-06-01T07:55:38;10.50;;;6.30;;
1204;SDS011;592;48.764;9.174;2023-06-01T07:58:05;15.83;;;6.70;;
1204;SDS011;592;48.764;9.174;2023-06-01T08:00:31;13.80;;;6.37;;
1204;SDS011;592;48.764;9.174;2023-06-01T08:02:59;12.00;;;6.50;;
1204;SDS011;592;48.764;9.174;2023-06-01T08:05:31;11.37;;;6.30;;
1204;SDS011;592;48.764;9.174;2023-06-01T08:07:58;14.20;;;6.33;;
1204;SDS011;592;48.764;9.174;2023-06-01T08:10:25;10.63;;;6.70;;
1204;SDS011;592;48.764;9.174;2023-06-01T08:12:52;11.73;;;6.60;;
1204;SDS011;592;48.764;9.174;2023-06-01T08:15:23;11.93;;;6.53;;
1204;SDS011;592;48.764;9.174;2023-06-01T08:17:52;10.90;;;6.23;;
1204;SDS011;592;48.764;9.174;2023-06-01T08:20:20;12.90;;;5.70;;
1204;SDS011;592;48.764;9.174;2023-06-01T08:22:48;9.17;;;6.90;;
1204;SDS011;592;48.764;9.174;2023-06-01T08:25:15;10.80;;;6.90;;
1204;SDS011;592;48.764;9.174;2023-06-01T08:27:42;8.60;;;6.13;;
1204;SDS011;592;48.764;9.174;2023-06-01T08:30:10;11.10;;;6.90;;
1204;SDS011;592;48.764;9.174;2023-06-01T08:32:37;9.07;;;5.93;;
1204;SDS011;592;48.764;9.174;2023-06-01T08:35:04;11.80;;;6.80;;
1204;SDS011;592;48.764;9.174;2023-06-01T08:37:34;10.43;;;6.37;;
1204;SDS011;592;48.764;9.174;2023-06-01T08:40:01;12.40;;;6.90;;
1204;SDS011;592;48.764;9.174;2023-06-01T08:42:34;13.07;;;7.43;;
1204;SDS011;592;48.764;9.174;2023-06-01T08:45:05;11.63;;;6.60;;
1204;SDS011;592;48.764;9.174;2023-06-01T08:47:33;10.57;;;6.70;;
1204;SDS011;592;48.764;9.174;2023-06-01T08:50:03;10.10;;;6.80;;
1204;SDS011;592;48.764;9.174;2023-06-01T08:52:31;10.37;;;6.43;;
1204;SDS011;592;48.764;9.174;2023-06-01T08:55:02;12.63;;;7.03;;
1204;SDS011;592;48.764;9.174;2023-06-01T08:57:31;10.57;;;6.57;;
1204;SDS011;592;48.764;9.174;2023-06-01T08:59:58;9.00;;;6.57;;
1204;SDS011;592;48.764;9.174;2023-06-01T09:02:25;12.20;;;7.07;;
1204;SDS011;592;48.764;9.174;2023-06-01T09:04:52;11.23;;;7.23;;
1204;SDS011;592;48.764;9.174;2023-06-01T09:07:19;11.20;;;6.50;;
1204;SDS011;592;48.764;9.174;2023-06-01T09:09:47;11.37;;;6.40;;
1204;SDS011;592;48.764;9.174;2023-06-01T09:12:19;14.67;;;7.27;;
1204;SDS011;592;48.764;9.174;2023-06-01T09:14:50;10.70;;;6.70;;
1204;SDS011;592;48.764;9.174;2023-06-01T09:17:32;9.30;;;7.03;;
1204;SDS011;592;48.764;9.174;2023-06-01T09:19:59;11.30;;;7.50;;
1204;SDS011;592;48.764;9.174;2023-06-01T09:22:29;10.87;;;7.20;;
1204;SDS011;592;48.764;9.174;2023-06-01T09:25:04;12.60;;;7.37;;
1204;SDS011;592;48.764;9.174;2023-06-01T09:27:41;11.70;;;7.90;;
1204;SDS011;592;48.764;9.174;2023-06-01T09:30:09;13.73;;;7.17;;
1204;SDS011;592;48.764;9.174;2023-06-01T09:32:37;11.03;;;7.00;;
1204;SDS011;592;48.764;9.174;2023-06-01T09:35:04;10.40;;;8.00;;
1204;SDS011;592;48.764;9.174;2023-06-01T09:37:32;13.27;;;7.53;;
1204;SDS011;592;48.764;9.174;2023-06-01T09:39:59;10.47;;;7.57;;
1204;SDS011;592;48.764;9.174;2023-06-01T09:42:33;11.23;;;7.20;;
1204;SDS011;592;48.764;9.174;2023-06-01T09:45:14;9.90;;;7.03;;
1204;SDS011;592;48.764;9.174;2023-06-01T09:47:42;9.70;;;7.00;;
1204;SDS011;592;48.764;9.174;2023-06-01T09:50:10;12.53;;;7.50;;
1204;SDS011;592;48.764;9.174;2023-06-01T09:52:37;11.63;;;6.83;;
1204;SDS011;592;48.764;9.174;2023-06-01T09:55:07;12.27;;;7.30;;
1204;SDS011;592;48.764;9.174;2023-06-01T09:57:36;10.43;;;7.60;;
1204;SDS011;592;48.764;9.174;2023-06-01T10:00:03;13.03;;;7.03;;
1204;SDS011;592;48.764;9.174;2023-06-01T10:02:31;10.83;;;7.20;;
1204;SDS011;592;48.764;9.174;2023-06-01T10:04:59;9.00;;;6.90;;
1204;SDS011;592;48.764;9.174;2023-06-01T10:07:27;11.20;;;7.40;;
1204;SDS011;592;48.764;9.174;2023-06-01T10:09:56;10.20;;;7.27;;
1204;SDS011;592;48.764;9.174;2023-06-01T10:12:24;11.10;;;7.57;;
1204;SDS011;592;48.764;9.174;2023-06-01T10:14:53;12.30;;;7.40;;
1204;SDS011;592;48.764;9.174;2023-06-01T10:17:22;14.23;;;7.80;;
1204;SDS011;592;48.764;9.174;2023-06-01T10:19:48;9.50;;;7.60;;
1204;SDS011;592;48.764;9.174;2023-06-01T10:22:15;11.63;;;7.50;;
1204;SDS011;592;48.764;9.174;2023-06-01T10:24:43;11.10;;;7.53;;
1204;SDS011;592;48.764;9.174;2023-06-01T10:27:15;8.57;;;6.87;;
1204;SDS011;592;48.764;9.174;2023-06-01T10:29:45;9.57;;;7.13;;
1204;SDS011;592;48.764;9.174;2023-06-01T10:35:09;8.17;;;6.33;;
1204;SDS011;592;48.764;9.174;2023-06-01T10:38:23;10.07;;;6.60;;
1204;SDS011;592;48.764;9.174;2023-06-01T10:40:51;9.93;;;6.97;;
1204;SDS011;592;48.764;9.174;2023-06-01T10:49:03;11.03;;;7.37;;
1204;SDS011;592;48.764;9.174;2023-06-01T10:51:30;10.00;;;7.17;;
1204;SDS011;592;48.764;9.174;2023-06-01T11:00:12;11.50;;;8.00;;
1204;SDS011;592;48.764;9.174;2023-06-01T11:02:44;11.10;;;7.50;;
1204;SDS011;592;48.764;9.174;2023-06-01T11:08:08;9.70;;;6.60;;
1204;SDS011;592;48.764;9.174;2023-06-01T11:10:53;11.30;;;7.30;;
1204;SDS011;592;48.764;9.174;2023-06-01T11:13:23;9.30;;;7.20;;
1204;SDS011;592;48.764;9.174;2023-06-01T11:18:54;15.80;;;7.80;;
1204;SDS011;592;48.764;9.174;2023-06-01T11:21:25;9.07;;;7.03;;
1204;SDS011;592;48.764;9.174;2023-06-01T11:23:54;11.90;;;7.80;;
1204;SDS011;592;48.764;9.174;2023-06-01T11:26:22;10.53;;;7.13;;
1204;SDS011;592;48.764;9.174;2023-06-01T11:28:51;10.17;;;7.90;;
1204;SDS011;592;48.764;9.174;2023-06-01T11:31:19;9.03;;;6.77;;
1204;SDS011;592;48.764;9.174;2023-06-01T11:33:48;9.70;;;6.30;;
1204;SDS011;592;48.764;9.174;2023-06-01T11:36:18;9.57;;;7.03;;
1204;SDS011;592;48.764;9.174;2023-06-01T11:38:50;9.07;;;6.87;;
1204;SDS011;592;48.764;9.174;2023-06-01T11:41:18;15.47;;;7.77;;
1204;SDS011;592;48.764;9.174;2023-06-01T11:43:52;11.33;;;7.47;;
1204;SDS011;592;48.764;9.174;2023-06-01T11:46:20;12.70;;;7.57;;
1204;SDS011;592;48.764;9.174;2023-06-01T11:48:57;11.23;;;6.77;;
1204;SDS011;592;48.764;9.174;2023-06-01T11:51:27;10.90;;;7.70;;
1204;SDS011;592;48.764;9.174;2023-06-01T11:53:56;12.30;;;7.27;;
1204;SDS011;592;48.764;9.174;2023-06-01T11:56:27;10.10;;;7.50;;
1204;SDS011;592;48.764;9.174;2023-06-01T11:58:56;12.93;;;7.10;;
1204;SDS011;592;48.764;9.174;2023-06-01T12:01:24;9.23;;;6.50;;
1204;SDS011;592;48.764;9.174;2023-06-01T12:03:51;8.30;;;6.87;;
1204;SDS011;592;48.764;9.174;2023-06-01T12:06:19;12.27;;;8.80;;
1204;SDS011;592;48.764;9.174;2023-06-01T12:08:46;15.90;;;7.30;;
1204;SDS011;592;48.764;9.174;2023-06-01T12:11:17;13.00;;;8.20;;
1204;SDS011;592;48.764;9.174;2023-06-01T12:13:46;9.90;;;6.93;;
1204;SDS011;592;48.764;9.174;2023-06-01T12:16:14;10.07;;;7.90;;
1204;SDS011;592;48.764;9.174;2023-06-01T12:18:41;11.47;;;7.37;;
1204;SDS011;592;48.764;9.174;2023-06-01T12:21:08;11.00;;;7.30;;
1204;SDS011;592;48.764;9.174;2023-06-01T12:23:35;7.83;;;6.37;;
1204;SDS011;592;48.764;9.174;2023-06-01T12:26:02;10.80;;;6.73;;
1204;SDS011;592;48.764;9.174;2023-06-01T12:28:30;8.60;;;6.70;;
1204;SDS011;592;48.764;9.174;2023-06-01T12:31:14;10.00;;;6.63;;
1204;SDS011;592;48.764;9.174;2023-06-01T12:33:42;9.40;;;6.60;;
1204;SDS011;592;48.764;9.174;2023-06-01T12:36:10;10.20;;;7.00;;
1204;SDS011;592;48.764;9.174;2023-06-01T12:38:53;9.17;;;5.87;;
1204;SDS011;592;48.764;9.174;2023-06-01T12:41:20;9.87;;;7.07;;
1204;SDS011;592;48.764;9.174;2023-06-01T12:43:48;10.17;;;7.13;;
1204;SDS011;592;48.764;9.174;2023-06-01T12:46:18;9.27;;;7.03;;
1204;SDS011;592;48.764;9.174;2023-06-01T12:48:46;10.47;;;7.07;;
1204;SDS011;592;48.764;9.174;2023-06-01T12:51:13;10.50;;;7.30;;
1204;SDS011;592;48.764;9.174;2023-06-01T12:53:40;15.10;;;7.10;;
1204;SDS011;592;48.764;9.174;2023-06-01T12:56:07;9.43;;;7.27;;
1204;SDS011;592;48.764;9.174;2023-06-01T12:58:34;11.00;;;7.23;;
1204;SDS011;592;48.764;9.174;2023-06-01T13:01:02;9.50;;;7.20;;
1204;SDS011;592;48.764;9.174;2023-06-01T13:03:30;8.93;;;7.30;;
1204;SDS011;592;48.764;9.174;2023-06-01T13:05:56;10.10;;;6.63;;
1204;SDS011;592;48.764;9.174;2023-06-01T13:08:23;8.93;;;6.60;;
1204;SDS011;592;48.764;9.174;2023-06-01T13:10:50;9.60;;;6.13;;
1204;SDS011;592;48.764;9.174;2023-06-01T13:13:16;7.20;;;6.03;;
1204;SDS011;592;48.764;9.174;2023-06-01T13:15:43;10.00;;;5.97;;
1204;SDS011;592;48.764;9.174;2023-06-01T13:18:12;9.33;;;5.83;;
1204;SDS011;592;48.764;9.174;2023-06-01T13:20:39;13.87;;;6.90;;
1204;SDS011;592;48.764;9.174;2023-06-01T13:23:06;9.80;;;6.77;;
1204;SDS011;592;48.764;9.174;2023-06-01T13:25:33;10.07;;;6.80;;
1204;SDS011;592;48.764;9.174;2023-06-01T13:28:00;12.10;;;7.33;;
1204;SDS011;592;48.764;9.174;2023-06-01T13:30:27;13.53;;;8.50;;
1204;SDS011;592;48.764;9.174;2023-06-01T13:32:54;12.93;;;6.90;;
1204;SDS011;592;48.764;9.174;2023-06-01T13:35:22;11.80;;;7.20;;
1204;SDS011;592;48.764;9.174;2023-06-01T13:37:49;11.07;;;6.40;;
1204;SDS011;592;48.764;9.174;2023-06-01T13:40:15;10.93;;;6.90;;
1204;SDS011;592;48.764;9.174;2023-06-01T13:42:47;9.90;;;6.37;;
1204;SDS011;592;48.764;9.174;2023-06-01T13:45:14;10.83;;;5.97;;
1204;SDS011;592;48.764;9.174;2023-06-01T13:47:41;12.60;;;6.00;;
1204;SDS011;592;48.764;9.174;2023-06-01T13:50:08;10.53;;;6.40;;
1204;SDS011;592;48.764;9.174;2023-06-01T13:52:37;8.33;;;5.73;;
1204;SDS011;592;48.764;9.174;2023-06-01T13:55:04;11.17;;;6.43;;
1204;SDS011;592;48.764;9.174;2023-06-01T13:57:32;7.67;;;6.00;;
1204;SDS011;592;48.764;9.174;2023-06-01T13:59:59;14.80;;;6.83;;
1204;SDS011;592;48.764;9.174;2023-06-01T14:02:26;12.07;;;7.37;;
1204;SDS011;592;48.764;9.174;2023-06-01T14:04:53;8.20;;;5.80;;
1204;SDS011;592;48.764;9.174;2023-06-01T14:07:19;9.60;;;6.20;;
1204;SDS011;592;48.764;9.174;2023-06-01T14:09:50;8.13;;;5.63;;
1204;SDS011;592;48.764;9.174;2023-06-01T14:12:17;7.80;;;5.50;;
1204;SDS011;592;48.764;9.174;2023-06-01T14:14:44;12.80;;;6.40;;
1204;SDS011;592;48.764;9.174;2023-06-01T14:17:10;6.73;;;5.50;;
1204;SDS011;592;48.764;9.174;2023-06-01T14:19:37;6.37;;;4.97;;
1204;SDS011;592;48.764;9.174;2023-06-01T14:22:03;8.57;;;5.43;;
1204;SDS011;592;48.764;9.174;2023-06-01T14:24:30;8.10;;;4.77;;
1204;SDS011;592;48.764;9.174;2023-06-01T14:26:58;14.10;;;5.67;;
1204;SDS011;592;48.764;9.174;2023-06-01T14:29:25;9.43;;;5.00;;
1204;SDS011;592;48.764;9.174;2023-06-01T14:31:52;9.83;;;4.90;;
1204;SDS011;592;48.764;9.174;2023-06-01T14:34:18;8.23;;;4.83;;
1204;SDS011;592;48.764;9.174;2023-06-01T14:36:46;10.73;;;5.50;;
1204;SDS011;592;48.764;9.174;2023-06-01T14:39:12;6.73;;;4.73;;
1204;SDS011;592;48.764;9.174;2023-06-01T14:41:39;7.53;;;4.83;;
1204;SDS011;592;48.764;9.174;2023-06-01T14:44:07;6.50;;;4.20;;
1204;SDS011;592;48.764;9.174;2023-06-01T14:46:34;8.10;;;5.40;;
1204;SDS011;592;48.764;9.174;2023-06-01T14:49:01;7.73;;;4.67;;
1204;SDS011;592;48.764;9.174;2023-06-01T14:51:29;7.20;;;4.10;;
1204;SDS011;592;48.764;9.174;2023-06-01T14:53:56;22.67;;;5.80;;
1204;SDS011;592;48.764;9.174;2023-06-01T14:56:23;7.73;;;4.07;;
1204;SDS011;592;48.764;9.174;2023-06-01T14:58:51;7.67;;;4.73;;
1204;SDS011;592;48.764;9.174;2023-06-01T15:01:19;7.07;;;4.27;;
1204;SDS011;592;48.764;9.174;2023-06-01T15:03:46;9.67;;;4.50;;
1204;SDS011;592;48.764;9.174;2023-06-01T15:06:12;8.50;;;4.37;;
1204;SDS011;592;48.764;9.174;2023-06-01T15:08:39;10.37;;;4.70;;
1204;SDS011;592;48.764;9.174;2023-06-01T15:11:06;7.20;;;4.50;;
1204;SDS011;592;48.764;9.174;2023-06-01T15:13:33;7.20;;;4.23;;
1204;SDS011;592;48.764;9.174;2023-06-01T15:15:59;6.67;;;4.67;;
1204;SDS011;592;48.764;9.174;2023-06-01T15:18:27;7.43;;;4.00;;
1204;SDS011;592;48.764;9.174;2023-06-01T15:20:54;7.40;;;4.20;;
1204;SDS011;592;48.764;9.174;2023-06-01T15:23:22;7.77;;;4.17;;
1204;SDS011;592;48.764;9.174;2023-06-01T15:25:49;7.70;;;4.27;;
1204;SDS011;592;48.764;9.174;2023-06-01T15:28:15;6.23;;;4.50;;
1204;SDS011;592;48.764;9.174;2023-06-01T15:30:42;8.37;;;4.30;;
1204;SDS011;592;48.764;9.174;2023-06-01T15:33:09;7.30;;;4.07;;
1204;SDS011;592;48.764;9.174;2023-06-01T15:35:37;6.93;;;4.10;;
1204;SDS011;592;48.764;9.174;2023-06-01T15:38:04;8.27;;;4.77;;
1204;SDS011;592;48.764;9.174;2023-06-01T15:40:30;7.50;;;4.60;;
1204;SDS011;592;48.764;9.174;2023-06-01T15:42:57;6.83;;;3.97;;
1204;SDS011;592;48.764;9.174;2023-06-01T15:45:23;9.30;;;4.30;;
1204;SDS011;592;48.764;9.174;2023-06-01T15:47:50;7.67;;;4.33;;